createdAt,value
2019-05-20T00:01:19.053Z,11.58
2019-05-20T00:04:32.555Z,11.57
2019-05-20T00:07:46.527Z,11.55
2019-05-20T00:11:00.351Z,11.54
2019-05-20T00:14:13.928Z,11.53
2019-05-20T00:17:27.679Z,11.51
2019-05-20T00:20:41.195Z,11.46
2019-05-20T00:23:54.667Z,11.43
2019-05-20T00:27:08.159Z,11.41
2019-05-20T00:30:21.751Z,11.40
2019-05-20T00:33:35.214Z,11.33
2019-05-20T00:36:48.915Z,11.28
2019-05-20T00:40:03.053Z,11.29
2019-05-20T00:43:16.822Z,11.23
2019-05-20T00:46:30.378Z,11.20
2019-05-20T00:49:43.861Z,11.21
2019-05-20T00:52:57.581Z,11.14
2019-05-20T00:56:11.060Z,11.13
2019-05-20T00:59:24.527Z,11.15
2019-05-20T01:02:38.135Z,11.20
2019-05-20T01:05:51.867Z,11.22
2019-05-20T01:09:07.091Z,11.26
2019-05-20T01:12:20.620Z,11.28
2019-05-20T01:15:34.219Z,11.33
2019-05-20T01:18:47.734Z,11.40
2019-05-20T01:22:01.605Z,11.45
2019-05-20T01:25:15.310Z,11.49
2019-05-20T01:28:28.941Z,11.44
2019-05-20T01:31:42.453Z,11.40
2019-05-20T01:34:55.946Z,11.36
2019-05-20T01:38:09.531Z,11.35
2019-05-20T01:41:23.250Z,11.34
2019-05-20T01:44:36.850Z,11.30
2019-05-20T01:47:50.350Z,11.26
2019-05-20T01:51:03.850Z,11.22
2019-05-20T01:54:17.445Z,11.16
2019-05-20T01:57:30.972Z,11.14
2019-05-20T02:00:44.980Z,11.12
2019-05-20T02:03:58.559Z,11.07
2019-05-20T02:07:12.621Z,11.02
2019-05-20T02:10:26.129Z,10.99
2019-05-20T02:13:51.640Z,10.95
2019-05-20T02:17:05.265Z,10.90
2019-05-20T02:20:18.867Z,10.86
2019-05-20T02:23:32.483Z,10.84
2019-05-20T02:26:45.983Z,10.78
2019-05-20T02:29:59.786Z,10.73
2019-05-20T02:33:13.477Z,10.72
2019-05-20T02:36:27.177Z,10.70
2019-05-20T02:39:41.037Z,10.68
2019-05-20T02:42:54.792Z,10.64
2019-05-20T02:46:08.492Z,10.63
2019-05-20T02:49:22.014Z,10.60
2019-05-20T02:52:35.521Z,10.57
2019-05-20T02:55:49.316Z,10.55
2019-05-20T02:59:03.422Z,10.47
2019-05-20T03:02:17.257Z,10.43
2019-05-20T03:05:30.750Z,10.39
2019-05-20T03:08:44.720Z,10.34
2019-05-20T03:11:58.348Z,10.29
2019-05-20T03:15:12.374Z,10.28
2019-05-20T03:18:26.143Z,10.25
2019-05-20T03:21:39.971Z,10.22
2019-05-20T03:24:53.562Z,10.14
2019-05-20T03:28:07.569Z,10.09
2019-05-20T03:31:21.241Z,10.03
2019-05-20T03:34:50.638Z,10.02
2019-05-20T03:37:50.271Z,10.02
2019-05-20T03:41:03.853Z,10.03
2019-05-20T03:44:17.456Z,10.04
2019-05-20T03:47:31.230Z,10.00
2019-05-20T03:50:44.836Z,9.96
2019-05-20T03:53:58.764Z,9.96
2019-05-20T03:57:12.482Z,9.92
2019-05-20T04:00:41.885Z,9.81
2019-05-20T04:03:55.635Z,9.76
2019-05-20T04:07:09.327Z,9.78
2019-05-20T04:10:22.945Z,9.82
2019-05-20T04:13:36.559Z,9.89
2019-05-20T04:16:51.182Z,9.96
2019-05-20T04:20:04.902Z,9.98
2019-05-20T04:23:18.894Z,9.98
2019-05-20T04:26:32.388Z,9.95
2019-05-20T04:29:45.949Z,10.00
2019-05-20T04:32:59.892Z,10.04
2019-05-20T04:36:13.478Z,10.09
2019-05-20T04:39:27.204Z,10.13
2019-05-20T04:42:41.092Z,10.22
2019-05-20T04:45:55.839Z,10.35
2019-05-20T04:49:09.471Z,10.46
2019-05-20T04:52:23.109Z,10.59
2019-05-20T04:55:36.631Z,10.70
2019-05-20T04:58:50.127Z,10.84
2019-05-20T05:02:03.748Z,11.00
2019-05-20T05:05:17.228Z,11.14
2019-05-20T05:08:30.820Z,11.30
2019-05-20T05:11:44.841Z,11.42
2019-05-20T05:16:38.536Z,11.58
2019-05-20T05:19:52.057Z,11.62
2019-05-20T05:23:06.180Z,11.68
2019-05-20T05:26:19.931Z,11.82
2019-05-20T05:29:33.563Z,11.97
2019-05-20T05:32:47.133Z,12.14
2019-05-20T05:36:01.046Z,12.24
2019-05-20T05:39:15.061Z,12.40
2019-05-20T05:42:28.685Z,12.63
2019-05-20T05:45:42.195Z,12.81
2019-05-20T05:48:55.789Z,13.00
2019-05-20T05:52:10.054Z,13.11
2019-05-20T05:55:23.752Z,13.29
2019-05-20T05:58:37.909Z,13.52
2019-05-20T06:01:51.555Z,13.69
2019-05-20T06:05:05.199Z,13.78
2019-05-20T06:08:19.101Z,13.94
2019-05-20T06:11:32.902Z,14.14
2019-05-20T06:14:46.775Z,14.32
2019-05-20T06:18:00.473Z,14.42
2019-05-20T06:21:14.516Z,14.61
2019-05-20T06:24:28.278Z,14.79
2019-05-20T06:27:42.051Z,14.82
2019-05-20T06:30:55.814Z,14.91
2019-05-20T06:34:09.469Z,14.98
2019-05-20T06:37:25.277Z,15.12
2019-05-20T06:40:39.010Z,15.16
2019-05-20T06:43:52.686Z,15.13
2019-05-20T06:47:06.323Z,15.26
2019-05-20T06:50:20.145Z,15.44
2019-05-20T06:53:34.007Z,15.57
2019-05-20T06:56:47.703Z,15.78
2019-05-20T07:00:01.551Z,15.93
2019-05-20T07:03:15.166Z,16.02
2019-05-20T07:06:44.725Z,16.05
2019-05-20T07:09:44.613Z,16.00
2019-05-20T07:12:58.107Z,15.96
2019-05-20T07:16:11.660Z,16.03
2019-05-20T07:19:25.330Z,16.18
2019-05-20T07:22:54.573Z,16.29
2019-05-20T07:25:54.650Z,16.25
2019-05-20T07:29:08.149Z,16.43
2019-05-20T07:32:21.768Z,16.37
2019-05-20T07:35:35.300Z,16.28
2019-05-20T07:38:48.937Z,16.20
2019-05-20T07:42:02.658Z,16.16
2019-05-20T07:45:16.353Z,16.43
2019-05-20T07:48:30.429Z,16.50
2019-05-20T07:51:44.722Z,16.55
2019-05-20T07:54:59.893Z,16.69
2019-05-20T07:58:15.497Z,16.62
2019-05-20T08:01:29.555Z,16.43
2019-05-20T08:04:43.399Z,16.49
2019-05-20T08:07:57.127Z,16.60
2019-05-20T08:11:11.312Z,16.39
2019-05-20T08:14:24.911Z,16.40
2019-05-20T08:17:38.674Z,16.47
2019-05-20T08:20:52.965Z,16.53
2019-05-20T08:24:06.695Z,16.61
2019-05-20T08:27:20.475Z,16.87
2019-05-20T08:30:35.497Z,16.99
2019-05-20T08:33:49.420Z,17.02
2019-05-20T08:37:03.149Z,17.09
2019-05-20T08:40:18.059Z,17.30
2019-05-20T08:43:31.614Z,17.34
2019-05-20T08:46:45.350Z,17.37
2019-05-20T08:49:58.917Z,17.46
2019-05-20T08:53:12.621Z,17.61
2019-05-20T08:56:26.316Z,17.43
2019-05-20T08:59:39.761Z,17.25
2019-05-20T09:02:53.599Z,17.27
2019-05-20T09:06:07.429Z,17.35
2019-05-20T09:09:21.198Z,17.37
2019-05-20T09:12:35.322Z,17.53
2019-05-20T09:15:49.097Z,17.78
2019-05-20T09:19:02.828Z,17.70
2019-05-20T09:22:16.659Z,17.61
2019-05-20T09:25:31.404Z,17.64
2019-05-20T09:28:45.061Z,17.64
2019-05-20T09:31:59.135Z,17.37
2019-05-20T09:35:12.889Z,17.26
2019-05-20T09:38:26.423Z,17.12
2019-05-20T09:41:40.820Z,17.33
2019-05-20T09:44:54.511Z,17.78
2019-05-20T09:48:09.675Z,18.18
2019-05-20T09:51:23.527Z,18.50
2019-05-20T09:54:37.370Z,18.67
2019-05-20T09:57:50.866Z,18.56
2019-05-20T10:01:04.697Z,18.31
2019-05-20T10:04:18.415Z,18.44
2019-05-20T10:07:31.953Z,18.50
2019-05-20T10:10:45.891Z,18.71
2019-05-20T10:13:59.429Z,18.78
2019-05-20T10:17:13.030Z,18.48
2019-05-20T10:20:26.820Z,18.28
2019-05-20T10:23:40.368Z,18.49
2019-05-20T10:26:53.858Z,18.91
2019-05-20T10:30:07.688Z,19.21
2019-05-20T10:33:21.374Z,19.59
2019-05-20T10:36:35.189Z,19.14
2019-05-20T10:39:48.929Z,19.16
2019-05-20T10:43:02.627Z,19.60
2019-05-20T10:46:16.308Z,19.83
2019-05-20T10:49:30.027Z,20.32
2019-05-20T10:52:43.664Z,20.59
2019-05-20T10:55:57.636Z,21.03
2019-05-20T10:59:12.416Z,21.37
2019-05-20T11:02:30.991Z,21.28
2019-05-20T11:05:42.431Z,21.25
2019-05-20T11:08:56.474Z,21.17
2019-05-20T11:12:10.009Z,21.01
2019-05-20T11:15:23.768Z,20.58
2019-05-20T11:18:37.280Z,20.65
2019-05-20T11:21:51.121Z,20.41
2019-05-20T11:25:04.977Z,19.89
2019-05-20T11:28:19.211Z,19.54
2019-05-20T11:31:33.023Z,18.89
2019-05-20T11:34:46.717Z,18.56
2019-05-20T11:38:00.566Z,17.98
2019-05-20T11:41:14.307Z,17.62
2019-05-20T11:44:28.086Z,17.17
2019-05-20T11:47:41.790Z,17.07
2019-05-20T11:50:55.386Z,17.14
2019-05-20T11:54:09.166Z,17.17
2019-05-20T11:57:22.815Z,17.18
2019-05-20T12:00:40.492Z,17.17
2019-05-20T12:03:54.064Z,17.26
2019-05-20T12:07:08.640Z,17.31
2019-05-20T12:10:22.611Z,17.27
2019-05-20T12:16:37.771Z,17.37
2019-05-20T12:19:51.628Z,17.33
2019-05-20T12:23:05.273Z,17.34
2019-05-20T12:26:22.458Z,17.24
2019-05-20T12:29:34.792Z,17.16
2019-05-20T12:32:48.482Z,17.11
2019-05-20T12:36:02.837Z,16.99
2019-05-20T12:39:16.559Z,17.11
2019-05-20T12:42:30.491Z,17.21
2019-05-20T12:45:44.252Z,17.32
2019-05-20T12:48:57.962Z,17.46
2019-05-20T12:52:11.658Z,17.38
2019-05-20T12:55:25.457Z,17.31
2019-05-20T12:58:39.284Z,17.37
2019-05-20T13:01:53.086Z,17.25
2019-05-20T13:05:06.969Z,17.00
2019-05-20T13:08:20.937Z,16.86
2019-05-20T13:11:34.744Z,16.90
2019-05-20T13:14:48.547Z,17.04
2019-05-20T13:18:02.335Z,17.19
2019-05-20T13:21:16.078Z,17.43
2019-05-20T13:24:29.758Z,17.66
2019-05-20T13:27:43.608Z,17.82
2019-05-20T13:30:57.238Z,18.07
2019-05-20T13:34:10.854Z,18.32
2019-05-20T13:37:24.359Z,18.12
2019-05-20T13:40:46.448Z,17.99
2019-05-20T13:43:53.424Z,17.84
2019-05-20T13:47:07.146Z,18.00
2019-05-20T13:50:20.986Z,18.20
2019-05-20T13:53:34.996Z,18.40
2019-05-20T13:56:48.932Z,18.37
2019-05-20T14:00:02.956Z,18.80
2019-05-20T14:03:16.671Z,19.63
2019-05-20T14:06:30.290Z,19.93
2019-05-20T14:09:43.894Z,20.46
2019-05-20T14:12:57.578Z,20.69
2019-05-20T14:16:11.401Z,20.46
2019-05-20T14:19:25.219Z,20.14
2019-05-20T14:22:38.879Z,19.97
2019-05-20T14:25:52.667Z,19.93
2019-05-20T14:29:06.500Z,19.94
2019-05-20T14:32:20.173Z,19.80
2019-05-20T14:35:34.356Z,19.68
2019-05-20T14:38:48.097Z,19.26
2019-05-20T14:42:01.872Z,19.75
2019-05-20T14:45:16.123Z,19.88
2019-05-20T14:48:29.917Z,19.41
2019-05-20T14:51:43.699Z,18.90
2019-05-20T14:54:57.372Z,18.79
2019-05-20T14:58:11.347Z,18.52
2019-05-20T15:01:25.187Z,18.24
2019-05-20T15:04:38.793Z,18.08
2019-05-20T15:07:52.473Z,18.04
2019-05-20T15:11:06.150Z,18.00
2019-05-20T15:14:19.910Z,17.91
2019-05-20T15:17:33.677Z,17.81
2019-05-20T15:20:47.833Z,17.63
2019-05-20T15:24:02.025Z,17.40
2019-05-20T15:27:15.800Z,17.28
2019-05-20T15:30:29.574Z,17.13
2019-05-20T15:33:43.327Z,17.11
2019-05-20T15:36:56.980Z,17.01
2019-05-20T15:40:11.132Z,16.95
2019-05-20T15:43:25.397Z,16.94
2019-05-20T15:46:39.043Z,16.94
2019-05-20T15:49:52.728Z,16.91
2019-05-20T15:53:11.060Z,16.94
2019-05-20T15:56:22.022Z,17.09
2019-05-20T15:59:45.368Z,17.16
2019-05-20T16:02:51.366Z,17.15
2019-05-20T16:06:05.343Z,16.99
2019-05-20T16:09:19.111Z,16.88
2019-05-20T16:12:34.400Z,16.87
2019-05-20T16:15:48.093Z,16.82
2019-05-20T16:19:01.722Z,16.75
2019-05-20T16:22:15.466Z,16.68
2019-05-20T16:25:29.226Z,16.65
2019-05-20T16:28:42.762Z,16.74
2019-05-20T16:31:56.738Z,16.80
2019-05-20T16:35:10.572Z,16.55
2019-05-20T16:38:24.305Z,16.45
2019-05-20T16:41:38.024Z,16.30
2019-05-20T16:44:51.598Z,16.24
2019-05-20T16:48:05.297Z,16.14
2019-05-20T16:51:22.080Z,16.12
2019-05-20T16:54:34.666Z,16.08
2019-05-20T16:57:48.290Z,16.12
2019-05-20T17:01:02.004Z,16.11
2019-05-20T17:04:15.703Z,16.04
2019-05-20T17:07:29.357Z,15.92
2019-05-20T17:10:43.383Z,15.81
2019-05-20T17:13:56.911Z,15.74
2019-05-20T17:17:10.940Z,15.67
2019-05-20T17:20:24.673Z,15.61
2019-05-20T17:23:38.285Z,15.61
2019-05-20T17:26:52.430Z,15.55
2019-05-20T17:30:06.446Z,15.50
2019-05-20T17:33:20.529Z,15.44
2019-05-20T17:36:34.546Z,15.31
2019-05-20T17:39:48.084Z,15.36
2019-05-20T17:43:01.840Z,15.36
2019-05-20T17:46:15.771Z,15.34
2019-05-20T17:49:31.420Z,15.38
2019-05-20T17:53:04.782Z,15.38
2019-05-20T17:56:18.872Z,15.31
2019-05-20T17:59:32.980Z,15.26
2019-05-20T18:02:46.997Z,15.25
2019-05-20T18:06:00.649Z,15.20
2019-05-20T18:09:14.799Z,15.20
2019-05-20T18:12:28.533Z,15.18
2019-05-20T18:15:42.570Z,15.20
2019-05-20T18:18:56.619Z,15.26
2019-05-20T18:22:10.268Z,15.16
2019-05-20T18:25:23.883Z,15.02
2019-05-20T18:28:37.965Z,14.96
2019-05-20T18:31:51.693Z,14.85
2019-05-20T18:35:05.833Z,14.86
2019-05-20T18:38:19.517Z,14.82
2019-05-20T18:41:33.130Z,14.86
2019-05-20T18:44:46.766Z,14.89
2019-05-20T18:48:00.726Z,14.83
2019-05-20T18:51:14.259Z,14.80
2019-05-20T18:54:27.766Z,14.71
2019-05-20T18:57:41.389Z,14.62
2019-05-20T19:00:54.904Z,14.67
2019-05-20T19:04:08.531Z,14.66
2019-05-20T19:07:22.257Z,14.73
2019-05-20T19:10:35.966Z,14.73
2019-05-20T19:13:49.700Z,14.77
2019-05-20T19:17:03.403Z,14.72
2019-05-20T19:20:17.140Z,14.74
2019-05-20T19:23:30.748Z,14.73
2019-05-20T19:26:44.323Z,14.67
2019-05-20T19:29:57.951Z,14.61
2019-05-20T19:33:11.776Z,14.64
2019-05-20T19:36:25.496Z,14.56
2019-05-20T19:39:39.036Z,14.56
2019-05-20T19:42:52.773Z,14.52
2019-05-20T19:46:06.501Z,14.47
2019-05-20T19:49:20.172Z,14.42
2019-05-20T19:52:34.439Z,14.50
2019-05-20T19:55:47.955Z,14.59
2019-05-20T19:59:01.682Z,14.61
2019-05-20T20:02:17.746Z,14.51
2019-05-20T20:05:30.924Z,14.38
2019-05-20T20:08:44.747Z,14.41
2019-05-20T20:11:58.361Z,14.42
2019-05-20T20:15:16.443Z,14.45
2019-05-20T20:18:29.965Z,14.46
2019-05-20T20:21:43.507Z,14.39
2019-05-20T20:24:57.277Z,14.30
2019-05-20T20:28:10.927Z,14.37
2019-05-20T20:31:24.821Z,14.42
2019-05-20T20:34:38.307Z,14.45
2019-05-20T20:37:51.919Z,14.45
2019-05-20T20:41:05.669Z,14.46
2019-05-20T20:44:19.225Z,14.47
2019-05-20T20:47:41.383Z,14.48
2019-05-20T20:50:48.378Z,14.37
2019-05-20T20:54:02.014Z,14.40
2019-05-20T20:57:15.709Z,14.42
2019-05-20T21:00:29.310Z,14.47
2019-05-20T21:03:43.106Z,14.43
2019-05-20T21:06:56.615Z,14.44
2019-05-20T21:10:10.430Z,14.39
2019-05-20T21:16:44.480Z,14.43
2019-05-20T21:19:58.170Z,14.35
2019-05-20T21:23:11.816Z,14.37
2019-05-20T21:26:25.302Z,14.31
2019-05-20T21:29:38.933Z,14.32
2019-05-20T21:33:07.610Z,14.33
2019-05-20T21:36:07.947Z,14.37
2019-05-20T21:39:21.603Z,14.38
2019-05-20T21:42:35.487Z,14.37
2019-05-20T21:45:48.978Z,14.38
2019-05-20T21:49:02.921Z,14.46
2019-05-20T21:52:16.442Z,14.50
2019-05-20T21:55:30.069Z,14.48
2019-05-20T21:58:43.564Z,14.50
2019-05-20T22:01:57.063Z,14.49
2019-05-20T22:05:11.197Z,14.45
2019-05-20T22:08:24.801Z,14.44
2019-05-20T22:11:38.318Z,14.42
2019-05-20T22:14:52.145Z,14.35
2019-05-20T22:18:05.744Z,14.38
2019-05-20T22:21:23.654Z,14.27
2019-05-20T22:24:37.528Z,14.27
2019-05-20T22:27:51.355Z,14.23
2019-05-20T22:31:04.841Z,14.18
2019-05-20T22:34:18.553Z,14.18
2019-05-20T22:37:32.457Z,14.18
2019-05-20T22:40:45.973Z,14.23
2019-05-20T22:44:00.096Z,14.26
2019-05-20T22:47:13.905Z,14.19
2019-05-20T22:50:27.745Z,14.10
2019-05-20T22:53:41.298Z,14.20
2019-05-20T22:56:55.181Z,14.26
2019-05-20T23:00:08.869Z,14.26
2019-05-20T23:03:23.115Z,14.22
2019-05-20T23:15:42.304Z,14.05
2019-05-20T23:18:55.815Z,13.99
2019-05-20T23:22:10.347Z,13.92
2019-05-20T23:25:23.831Z,13.97
2019-05-20T23:28:37.419Z,14.01
2019-05-20T23:31:50.914Z,14.02
2019-05-20T23:35:04.766Z,14.04
2019-05-20T23:38:18.282Z,14.05
2019-05-20T23:41:32.199Z,14.04
2019-05-20T23:44:45.698Z,14.03
2019-05-20T23:47:59.202Z,13.99
2019-05-20T23:51:13.229Z,14.05
2019-05-20T23:54:26.711Z,14.12
2019-05-20T23:57:40.318Z,14.00
